Time;durP1;ratioP1;P1;durP2;ratioP2;P2;SDS_P1;SDS_P2;PMS_P1;PMS_P2;Temp;Humidity;BMP_temperature;BMP_pressure;BME280_temperature;BME280_humidity;BME280_pressure;Samples;Min_cycle;Max_cycle;Signal;HPM_P1;HPM_P2
2022/05/08 00:01:21;;;;;;;6.3;5.5;;;;;;;12.81;96.25195;941.6442;;;;
2022/05/08 00:03:46;;;;;;;6.6;6;;;;;;;12.79;96.41992;941.6217;;;;
2022/05/08 00:06:17;;;;;;;6.8;5.7;;;;;;;12.76;95.79395;941.6088;;;;
2022/05/08 00:08:44;;;;;;;6.1;5.2;;;;;;;12.73;95.74023;941.5638;;;;
2022/05/08 00:11:09;;;;;;;6.1;5.5;;;;;;;12.71;96.18164;941.5653;;;;
2022/05/08 00:13:35;;;;;;;6.1;5.4;;;;;;;12.69;95.83594;941.5468;;;;
2022/05/08 00:16:09;;;;;;;7.1;6;;;;;;;12.65;95.95215;941.5505;;;;
2022/05/08 00:18:41;;;;;;;7.4;6.5;;;;;;;12.61;96.23242;941.5151;;;;
2022/05/08 00:21:09;;;;;;;9.7;7;;;;;;;12.59;96.04297;941.5339;;;;
2022/05/08 00:23:34;;;;;;;8.5;6.6;;;;;;;12.57;96.28027;941.5402;;;;
2022/05/08 00:26:02;;;;;;;8;6.9;;;;;;;12.59;96.3623;941.5283;;;;
2022/05/08 00:28:27;;;;;;;8.6;7.2;;;;;;;12.59;96.3623;941.5043;;;;
2022/05/08 00:31:00;;;;;;;9.1;7.6;;;;;;;12.52;96.49707;941.5062;;;;
2022/05/08 00:33:27;;;;;;;10.3;8.3;;;;;;;12.5;96.99805;941.5197;;;;
2022/05/08 00:35:55;;;;;;;9.4;8.1;;;;;;;12.43;97.29395;941.4745;;;;
2022/05/08 00:38:19;;;;;;;9.7;8.4;;;;;;;12.46;97.5957;941.5266;;;;
2022/05/08 00:40:44;;;;;;;10.2;8.4;;;;;;;12.44;97.74023;941.4522;;;;
2022/05/08 00:43:10;;;;;;;9.8;8.8;;;;;;;12.49;97.70703;941.4637;;;;
2022/05/08 00:45:38;;;;;;;10;8.8;;;;;;;12.53;97.66895;941.4719;;;;
2022/05/08 00:48:03;;;;;;;10.3;8.9;;;;;;;12.59;97.58008;941.4868;;;;
2022/05/08 00:50:33;;;;;;;9.6;8.6;;;;;;;12.65;97.39746;941.473;;;;
2022/05/08 00:53:03;;;;;;;8.1;7.3;;;;;;;12.65;96.99609;941.4395;;;;
2022/05/08 00:55:33;;;;;;;8.1;7.3;;;;;;;12.69;96.70801;941.4014;;;;
2022/05/08 00:58:00;;;;;;;8.9;7.3;;;;;;;12.72;96.34668;941.3816;;;;
2022/05/08 01:00:23;;;;;;;8.6;7.7;;;;;;;12.62;96.54199;941.3865;;;;
2022/05/08 01:02:54;;;;;;;8.5;7.6;;;;;;;12.66;96.49512;941.3988;;;;
2022/05/08 01:05:24;;;;;;;10.5;8.4;;;;;;;12.65;96.57129;941.4027;;;;
2022/05/08 01:07:54;;;;;;;9.5;8.5;;;;;;;12.7;96.28516;941.3663;;;;
2022/05/08 01:10:19;;;;;;;10;8.9;;;;;;;12.72;96.39258;941.3784;;;;
2022/05/08 01:12:47;;;;;;;8.8;7.8;;;;;;;12.67;96.43945;941.3462;;;;
2022/05/08 01:15:12;;;;;;;8;7.2;;;;;;;12.74;96.16699;941.285;;;;
2022/05/08 01:17:44;;;;;;;7.9;7.1;;;;;;;12.71;96.09375;941.3233;;;;
2022/05/08 01:20:34;;;;;;;8;7.2;;;;;;;12.73;95.7627;941.2394;;;;
2022/05/08 01:22:59;;;;;;;8.8;7.2;;;;;;;12.67;95.33789;941.2894;;;;
2022/05/08 01:31:21;;;;;;;7.5;6.7;;;;;;;12.59;96.36426;941.3181;;;;
2022/05/08 01:33:46;;;;;;;7.6;6.8;;;;;;;12.62;96.11816;941.3323;;;;
2022/05/08 01:36:13;;;;;;;8.8;7;;;;;;;12.61;96.23242;941.3234;;;;
2022/05/08 01:38:41;;;;;;;8.1;7.3;;;;;;;12.65;96.33008;941.3405;;;;
2022/05/08 01:41:08;;;;;;;7.2;6.5;;;;;;;12.68;96.17578;941.3119;;;;
2022/05/08 01:43:36;;;;;;;7.7;6.9;;;;;;;12.67;96.0957;941.2894;;;;
2022/05/08 01:46:00;;;;;;;7.8;7;;;;;;;12.71;95.92969;941.2776;;;;
2022/05/08 01:48:26;;;;;;;7.7;6.9;;;;;;;12.73;95.60449;941.3058;;;;
2022/05/08 01:50:54;;;;;;;7.5;6.7;;;;;;;12.72;95.60059;941.2849;;;;
2022/05/08 01:53:19;;;;;;;7.5;6.7;;;;;;;12.74;95.43457;941.3011;;;;
2022/05/08 01:55:54;;;;;;;7;6.3;;;;;;;12.74;95.15723;941.2587;;;;
2022/05/08 01:58:17;;;;;;;7.7;6.9;;;;;;;12.72;95.25781;941.2386;;;;
2022/05/08 02:00:46;;;;;;;8;7.2;;;;;;;12.7;95.33301;941.3503;;;;
2022/05/08 02:03:11;;;;;;;7.7;6.9;;;;;;;12.73;95.34961;941.2754;;;;
2022/05/08 02:05:41;;;;;;;8.8;7.5;;;;;;;12.73;95.30371;941.293;;;;
2022/05/08 02:08:07;;;;;;;9.2;7.7;;;;;;;12.73;95.3291;941.3602;;;;
2022/05/08 02:10:32;;;;;;;8.3;7.5;;;;;;;12.75;95.22754;941.3929;;;;
2022/05/08 02:12:57;;;;;;;8.8;7.9;;;;;;;12.76;95.11719;941.3834;;;;
2022/05/08 02:15:29;;;;;;;8.6;7.7;;;;;;;12.82;94.95703;941.4089;;;;
2022/05/08 02:17:52;;;;;;;8.2;7.4;;;;;;;12.79;94.92773;941.3836;;;;
2022/05/08 02:20:21;;;;;;;8.3;7.5;;;;;;;12.79;94.74609;941.4005;;;;
2022/05/08 02:22:46;;;;;;;8.6;7.4;;;;;;;12.81;94.55273;941.4238;;;;
2022/05/08 02:25:18;;;;;;;10.7;7.7;;;;;;;12.8;94.78027;941.3861;;;;
2022/05/08 02:27:49;;;;;;;8.8;7.9;;;;;;;12.81;94.71387;941.335;;;;
2022/05/08 02:30:10;;;;;;;9.1;8;;;;;;;12.84;94.53613;941.3658;;;;
2022/05/08 02:32:38;;;;;;;8.9;8;;;;;;;12.79;94.51465;941.394;;;;
2022/05/08 02:35:03;;;;;;;8.8;7.9;;;;;;;12.78;94.45508;941.2653;;;;
2022/05/08 02:37:34;;;;;;;8.9;8;;;;;;;12.78;94.50098;941.2589;;;;
2022/05/08 02:39:59;;;;;;;8.8;7.9;;;;;;;12.79;94.28711;941.295;;;;
2022/05/08 02:42:25;;;;;;;9.3;8.3;;;;;;;12.62;94.95898;941.385;;;;
2022/05/08 02:44:51;;;;;;;8.9;8;;;;;;;12.58;95.36426;941.3365;;;;
2022/05/08 02:47:16;;;;;;;9.3;8.1;;;;;;;12.55;95.5625;941.3155;;;;
2022/05/08 02:49:46;;;;;;;8.9;8;;;;;;;12.58;95.75391;941.3748;;;;
2022/05/08 02:52:16;;;;;;;9.6;8.6;;;;;;;12.62;95.58984;941.3914;;;;
2022/05/08 02:54:41;;;;;;;8.7;7.8;;;;;;;12.63;95.13281;941.3931;;;;
2022/05/08 02:59:33;;;;;;;9.9;8.6;;;;;;;12.66;95.33594;941.3972;;;;
2022/05/08 03:02:56;;;;;;;9.5;8.5;;;;;;;12.65;95.24023;941.3605;;;;
2022/05/08 03:05:24;;;;;;;10;8.4;;;;;;;12.68;95.40723;941.3734;;;;
2022/05/08 03:07:52;;;;;;;9.8;8.4;;;;;;;12.67;95.33594;941.3973;;;;
2022/05/08 03:10:17;;;;;;;8.7;7.8;;;;;;;12.71;95.21973;941.38;;;;
2022/05/08 03:12:47;;;;;;;10.1;8.9;;;;;;;12.71;95.25586;941.3233;;;;
2022/05/08 03:15:12;;;;;;;9.6;8.4;;;;;;;12.69;95.21582;941.3678;;;;
2022/05/08 03:17:38;;;;;;;9.9;8.9;;;;;;;12.7;95.12598;941.3136;;;;
2022/05/08 03:20:11;;;;;;;9.9;8.9;;;;;;;12.75;95.04395;941.3762;;;;
2022/05/08 03:22:36;;;;;;;9.4;8.4;;;;;;;12.76;94.81836;941.4051;;;;
2022/05/08 03:26:19;;;;;;;9.8;8.8;;;;;;;12.78;94.83203;941.3284;;;;
2022/05/08 03:28:43;;;;;;;10.2;9.1;;;;;;;12.74;94.87207;941.349;;;;
2022/05/08 03:31:48;;;;;;;8.9;8;;;;;;;12.78;94.64844;941.3484;;;;
2022/05/08 03:34:17;;;;;;;10;9;;;;;;;12.77;94.625;941.426;;;;
2022/05/08 03:36:43;;;;;;;10;9;;;;;;;12.75;94.6543;941.3738;;;;
2022/05/08 03:39:07;;;;;;;10.2;9.1;;;;;;;12.74;94.63086;941.3858;;;;
2022/05/08 03:41:35;;;;;;;9.8;8.8;;;;;;;12.73;94.54688;941.3737;;;;
2022/05/08 03:44:00;;;;;;;10.2;8.5;;;;;;;12.73;94.71875;941.4344;;;;
2022/05/08 03:46:28;;;;;;;9.9;8.9;;;;;;;12.72;94.77441;941.3936;;;;
2022/05/08 03:48:54;;;;;;;10.5;8.6;;;;;;;12.7;94.69043;941.3767;;;;
2022/05/08 03:51:25;;;;;;;10;8.9;;;;;;;12.71;94.74707;941.3816;;;;
2022/05/08 03:53:54;;;;;;;9.7;8.4;;;;;;;12.68;94.85645;941.4094;;;;
2022/05/08 03:56:19;;;;;;;10.5;8.7;;;;;;;12.72;94.75293;941.3864;;;;
2022/05/08 03:58:49;;;;;;;9.5;8.5;;;;;;;12.71;94.625;941.3951;;;;
2022/05/08 04:02:40;;;;;;;10.1;8.7;;;;;;;12.63;94.84668;941.3739;;;;
2022/05/08 04:05:05;;;;;;;10.1;9;;;;;;;12.55;95.14941;941.3547;;;;
2022/05/08 04:07:31;;;;;;;9.7;8.6;;;;;;;12.41;96.07227;941.359;;;;
2022/05/08 04:10:02;;;;;;;10.3;9;;;;;;;12.38;96.5918;941.3244;;;;
2022/05/08 04:16:21;;;;;;;11.6;9.8;;;;;;;12.37;97.17383;941.389;;;;
2022/05/08 04:19:33;;;;;;;12.1;10.5;;;;;;;12.41;97.13867;941.4045;;;;
2022/05/08 04:24:26;;;;;;;11.1;9.9;;;;;;;12.41;97.10352;941.4803;;;;
2022/05/08 04:27:28;;;;;;;10.9;9.8;;;;;;;12.39;97.2832;941.5313;;;;
2022/05/08 04:29:54;;;;;;;11.5;10.1;;;;;;;12.41;97.36719;941.5514;;;;
2022/05/08 04:32:19;;;;;;;11.3;10.1;;;;;;;12.39;97.49023;941.5784;;;;
2022/05/08 04:34:46;;;;;;;10.1;8.9;;;;;;;12.44;97.14453;941.5854;;;;
2022/05/08 04:37:11;;;;;;;11;9.2;;;;;;;12.55;96.69824;941.5503;;;;
2022/05/08 04:39:40;;;;;;;10.5;9.2;;;;;;;12.56;96.64258;941.592;;;;
2022/05/08 04:42:05;;;;;;;11.3;9.2;;;;;;;12.63;96.5;941.5457;;;;
2022/05/08 04:44:34;;;;;;;9.7;8.3;;;;;;;12.73;96.0957;941.6118;;;;
2022/05/08 04:46:59;;;;;;;9.5;8;;;;;;;12.75;95.70996;941.6016;;;;
2022/05/08 04:49:29;;;;;;;8.6;7.6;;;;;;;12.74;95.50293;941.6199;;;;
2022/05/08 04:51:59;;;;;;;8.4;7.5;;;;;;;12.7;95.67676;941.6747;;;;
2022/05/08 04:54:24;;;;;;;10;8.6;;;;;;;12.63;95.91504;941.6655;;;;
2022/05/08 04:56:53;;;;;;;10.5;9.1;;;;;;;12.64;96.09863;941.6895;;;;
2022/05/08 04:59:17;;;;;;;9.7;8.7;;;;;;;12.68;96.01465;941.6881;;;;
2022/05/08 05:01:45;;;;;;;9.4;8.5;;;;;;;12.73;95.77637;941.7101;;;;
2022/05/08 05:04:10;;;;;;;9.2;8.2;;;;;;;12.86;95.42578;941.7313;;;;
2022/05/08 05:06:41;;;;;;;8.8;7.3;;;;;;;12.87;94.89941;941.7273;;;;
2022/05/08 05:09:04;;;;;;;7.9;7;;;;;;;12.89;94.88281;941.7618;;;;
2022/05/08 05:11:31;;;;;;;7.9;7.1;;;;;;;12.94;94.69531;941.77;;;;
2022/05/08 05:13:56;;;;;;;7.9;7.1;;;;;;;12.98;94.44141;941.7831;;;;
2022/05/08 05:16:23;;;;;;;7.6;6.8;;;;;;;13.05;94.39941;941.7494;;;;
2022/05/08 05:18:48;;;;;;;7.5;6.8;;;;;;;13.11;94.19238;941.7561;;;;
2022/05/08 05:21:16;;;;;;;8.3;7.4;;;;;;;13.2;93.95996;941.7536;;;;
2022/05/08 05:23:42;;;;;;;7.7;6.9;;;;;;;13.11;93.30859;941.7233;;;;
2022/05/08 05:26:09;;;;;;;7.4;6.7;;;;;;;13.08;93.49805;941.7623;;;;
2022/05/08 05:29:05;;;;;;;8;7;;;;;;;13.13;93.57617;941.7354;;;;
2022/05/08 05:31:37;;;;;;;7.4;6.6;;;;;;;13.09;93.69531;941.7695;;;;
2022/05/08 05:34:07;;;;;;;7.8;7;;;;;;;13.17;93.33105;941.7564;;;;
2022/05/08 05:36:32;;;;;;;7.5;6.7;;;;;;;13.18;93.20898;941.7872;;;;
2022/05/08 05:38:57;;;;;;;7.1;6.4;;;;;;;13.28;92.92188;941.8655;;;;
2022/05/08 05:41:25;;;;;;;6.5;5.9;;;;;;;13.34;92.39355;941.7673;;;;
2022/05/08 05:43:50;;;;;;;7.1;6.3;;;;;;;13.42;92.11035;941.7528;;;;
2022/05/08 05:48:41;;;;;;;7.5;6.2;;;;;;;13.6;91.82617;941.8527;;;;
2022/05/08 05:51:06;;;;;;;7.5;6.7;;;;;;;13.72;91.39258;941.815;;;;
2022/05/08 05:53:33;;;;;;;8.2;6.4;;;;;;;13.78;91.11621;941.8063;;;;
2022/05/08 05:55:58;;;;;;;6.9;6.2;;;;;;;13.86;90.24902;941.7764;;;;
2022/05/08 05:58:26;;;;;;;8;6.7;;;;;;;13.88;90.79395;941.8597;;;;
2022/05/08 06:00:51;;;;;;;7.1;6.4;;;;;;;13.95;90.8877;941.8439;;;;
2022/05/08 06:03:19;;;;;;;6.1;5.5;;;;;;;13.96;89.54492;941.8423;;;;
2022/05/08 06:09:41;;;;;;;6;5.4;;;;;;;14;89.56348;941.808;;;;
2022/05/08 06:11:57;;;;;;;4.8;4.4;;;;;;;13.96;89.27832;941.9255;;;;
2022/05/08 06:14:22;;;;;;;5;4.5;;;;;;;13.97;88.76465;941.9;;;;
2022/05/08 06:16:50;;;;;;;4.8;4.4;;;;;;;14.02;88.66992;941.87;;;;
2022/05/08 06:19:20;;;;;;;4.9;4.4;;;;;;;14.04;88.89453;941.9213;;;;
2022/05/08 06:21:48;;;;;;;5.3;4.8;;;;;;;14.16;89.06543;941.8901;;;;
2022/05/08 06:24:14;;;;;;;5;4.3;;;;;;;14.3;88.61133;941.9988;;;;
2022/05/08 06:26:44;;;;;;;4.6;4.2;;;;;;;14.45;87.87109;941.9827;;;;
2022/05/08 06:29:12;;;;;;;4.7;4.2;;;;;;;14.48;86.88574;942.0067;;;;
2022/05/08 06:31:37;;;;;;;5.2;4.7;;;;;;;14.56;87.05176;941.9908;;;;
2022/05/08 06:34:10;;;;;;;4.7;4.3;;;;;;;14.61;86.83203;942.0108;;;;
2022/05/08 06:36:42;;;;;;;5.3;4.6;;;;;;;14.72;86.44824;941.9991;;;;
2022/05/08 06:39:07;;;;;;;5;4.5;;;;;;;14.75;86.12109;941.9741;;;;
2022/05/08 06:41:45;;;;;;;5.1;4.6;;;;;;;14.8;86.39453;941.9372;;;;
2022/05/08 06:44:14;;;;;;;5.3;4.2;;;;;;;14.89;86.08008;941.9679;;;;
2022/05/08 06:46:38;;;;;;;4.6;4.2;;;;;;;14.93;85.92578;941.9799;;;;
2022/05/08 06:49:07;;;;;;;4.5;4.1;;;;;;;15.01;85.73438;941.9933;;;;
2022/05/08 06:51:32;;;;;;;4.6;4.1;;;;;;;15.17;85.25684;942.0286;;;;
2022/05/08 06:53:59;;;;;;;4.8;4.3;;;;;;;15.28;84.26172;942.0159;;;;
2022/05/08 06:56:26;;;;;;;4.7;4.2;;;;;;;15.29;83.4209;941.995;;;;
2022/05/08 07:01:38;;;;;;;4.3;3.9;;;;;;;15.48;83.50488;941.9858;;;;
2022/05/08 07:03:48;;;;;;;4.2;3.8;;;;;;;15.62;82.93164;942.0485;;;;
2022/05/08 07:06:13;;;;;;;4.1;3.7;;;;;;;15.8;81.77441;942.0237;;;;
2022/05/08 07:08:40;;;;;;;4.1;3.7;;;;;;;15.53;81.62012;942.0242;;;;
2022/05/08 07:11:05;;;;;;;4.1;3.7;;;;;;;15.51;83.29102;942.0242;;;;
2022/05/08 07:13:35;;;;;;;4.1;3.5;;;;;;;15.68;82.0293;942.0282;;;;
2022/05/08 07:15:58;;;;;;;3.4;3.1;;;;;;;15.74;81.29004;941.9573;;;;
2022/05/08 07:18:25;;;;;;;3.5;2.9;;;;;;;15.94;80.24023;942.0016;;;;
2022/05/08 07:20:50;;;;;;;3.4;3.1;;;;;;;15.95;79.78125;942.0168;;;;
2022/05/08 07:23:17;;;;;;;3.2;2.9;;;;;;;16.16;79.86426;942.0287;;;;
2022/05/08 07:25:41;;;;;;;3.2;2.9;;;;;;;16.3;78.83691;942.0411;;;;
2022/05/08 07:28:09;;;;;;;2.8;2.6;;;;;;;16.22;78.98438;942.0303;;;;
2022/05/08 07:30:33;;;;;;;2.8;2.6;;;;;;;16.28;77.72363;942.0781;;;;
2022/05/08 07:33:01;;;;;;;3.1;2.8;;;;;;;16.35;77.95605;942.0334;;;;
2022/05/08 07:37:51;;;;;;;3.1;2.8;;;;;;;16.12;79.03613;942.1246;;;;
2022/05/08 07:40:20;;;;;;;3.8;3.4;;;;;;;16.18;79.09375;942.1331;;;;
2022/05/08 07:42:45;;;;;;;2.9;2.7;;;;;;;16.12;79.25586;942.0909;;;;
2022/05/08 07:45:48;;;;;;;3.2;2.9;;;;;;;16.14;78.92383;942.1149;;;;
2022/05/08 07:48:13;;;;;;;2.9;2.7;;;;;;;16.24;78.33984;942.0823;;;;
2022/05/08 07:50:40;;;;;;;3.2;2.9;;;;;;;16.29;78.91504;942.0644;;;;
2022/05/08 07:53:05;;;;;;;3.5;3.2;;;;;;;16.38;78.36426;942.0164;;;;
2022/05/08 07:55:34;;;;;;;3.2;2.9;;;;;;;16.48;77.89746;942.0795;;;;
2022/05/08 07:58:31;;;;;;;3.4;3.1;;;;;;;16.23;77.97852;942.0745;;;;
2022/05/08 08:00:57;;;;;;;3.5;3.2;;;;;;;16.1;79.20508;942.1223;;;;
2022/05/08 08:03:20;;;;;;;3.9;3.6;;;;;;;16.04;80.48828;942.093;;;;
2022/05/08 08:05:47;;;;;;;3.4;3.1;;;;;;;16.3;79.48535;942.1913;;;;
2022/05/08 08:09:25;;;;;;;4.8;3.1;;;;;;;16.15;79.24902;942.1775;;;;
2022/05/08 08:11:44;;;;;;;3.8;3.5;;;;;;;16.16;79.69043;942.2095;;;;
2022/05/08 08:14:12;;;;;;;3.8;3.5;;;;;;;16.16;80.15332;942.1903;;;;
2022/05/08 08:16:39;;;;;;;3.7;3.4;;;;;;;16.4;80.50977;942.2525;;;;
2022/05/08 08:19:03;;;;;;;3.5;3.2;;;;;;;16.54;78.25488;942.2327;;;;
2022/05/08 08:21:31;;;;;;;3.1;2.8;;;;;;;16.69;76.67188;942.2868;;;;
2022/05/08 08:24:18;;;;;;;3.3;3;;;;;;;16.77;76.4668;942.2676;;;;
2022/05/08 08:26:46;;;;;;;3.1;2.8;;;;;;;16.73;76.32129;942.2953;;;;
2022/05/08 08:29:11;;;;;;;3.3;3;;;;;;;16.62;75.07324;942.2513;;;;
2022/05/08 08:31:39;;;;;;;2.5;2.3;;;;;;;16.55;75.84863;942.2775;;;;
2022/05/08 08:34:04;;;;;;;2.8;2.6;;;;;;;16.7;75.88672;942.24;;;;
2022/05/08 08:37:20;;;;;;;2.5;2.3;;;;;;;16.69;75.34082;942.335;;;;
2022/05/08 08:39:50;;;;;;;2.6;2.4;;;;;;;16.69;74.27637;942.3197;;;;
2022/05/08 08:42:15;;;;;;;2.2;2.1;;;;;;;16.68;75.21191;942.3585;;;;
2022/05/08 08:49:38;;;;;;;2.3;2.1;;;;;;;17.2;74.23438;942.2636;;;;
2022/05/08 08:52:03;;;;;;;2.6;2.4;;;;;;;17.45;72.76953;942.3067;;;;
2022/05/08 08:54:31;;;;;;;3.6;2.5;;;;;;;17.56;72.51855;942.3378;;;;
2022/05/08 08:56:56;;;;;;;2.7;2.4;;;;;;;17.41;72.82031;942.3351;;;;
2022/05/08 08:59:35;;;;;;;3.2;2.9;;;;;;;17.23;73.94824;942.3442;;;;
2022/05/08 09:02:03;;;;;;;3.5;3.2;;;;;;;17.17;74.71582;942.3613;;;;
2022/05/08 09:04:32;;;;;;;3.1;2.9;;;;;;;17.16;75.01563;942.2955;;;;
2022/05/08 09:06:56;;;;;;;3.4;3.1;;;;;;;17.19;75.33301;942.3547;;;;
2022/05/08 09:09:24;;;;;;;3.9;3.5;;;;;;;16.9;76.39551;942.3932;;;;
2022/05/08 09:11:49;;;;;;;3.3;3;;;;;;;17.18;74.94922;942.3234;;;;
2022/05/08 09:14:15;;;;;;;3.6;3.3;;;;;;;17.29;74.88672;942.3975;;;;
2022/05/08 09:16:40;;;;;;;3.6;3.3;;;;;;;17.5;74.16895;942.4255;;;;
2022/05/08 09:19:05;;;;;;;4.1;3.7;;;;;;;17.75;73.61816;942.3145;;;;
2022/05/08 09:23:57;;;;;;;4.3;3.7;;;;;;;17.9;73.3418;942.2872;;;;
2022/05/08 09:26:23;;;;;;;4.6;4.2;;;;;;;18.08;72.34863;942.374;;;;
2022/05/08 09:28:48;;;;;;;4.6;4.2;;;;;;;17.87;72.33789;942.3546;;;;
2022/05/08 09:31:18;;;;;;;4.7;4.3;;;;;;;17.71;72.69336;942.3747;;;;
2022/05/08 09:33:43;;;;;;;5.2;4.7;;;;;;;17.35;73.63281;942.3719;;;;
2022/05/08 09:36:12;;;;;;;6;5.4;;;;;;;17.35;73.5752;942.3381;;;;
2022/05/08 09:38:41;;;;;;;6.9;5.1;;;;;;;17.17;74.46191;942.3894;;;;
2022/05/08 09:41:06;;;;;;;7.1;6.4;;;;;;;17.13;74.81348;942.3223;;;;
2022/05/08 09:43:38;;;;;;;7.9;6.6;;;;;;;17.11;75.25;942.3596;;;;
2022/05/08 09:46:03;;;;;;;7.4;6.7;;;;;;;17.26;75.70508;942.3326;;;;
2022/05/08 09:48:30;;;;;;;7.6;6.9;;;;;;;17.35;75.43066;942.3767;;;;
2022/05/08 09:50:55;;;;;;;9.6;8.2;;;;;;;17.39;74.37012;942.3522;;;;
2022/05/08 09:53:26;;;;;;;17.8;9.2;;;;;;;17.18;74.47363;942.3669;;;;
2022/05/08 09:55:50;;;;;;;10.3;9.1;;;;;;;17.16;75.35156;942.3968;;;;
2022/05/08 09:58:17;;;;;;;10.4;9.1;;;;;;;17.36;75.24609;942.3879;;;;
2022/05/08 10:00:42;;;;;;;10.5;9.4;;;;;;;17.51;74.64453;942.4254;;;;
2022/05/08 10:03:11;;;;;;;10.7;9.5;;;;;;;17.56;74.30566;942.449;;;;
2022/05/08 10:05:39;;;;;;;11.1;9.7;;;;;;;17.55;73.87305;942.375;;;;
2022/05/08 10:08:04;;;;;;;9.9;8.8;;;;;;;17.61;74.57031;942.3872;;;;
2022/05/08 10:15:21;;;;;;;12.2;8.6;;;;;;;17.24;74.34473;942.4253;;;;
2022/05/08 10:17:46;;;;;;;8.6;7.7;;;;;;;17.12;74.23242;942.4423;;;;
2022/05/08 10:20:14;;;;;;;9;8.1;;;;;;;17.07;74.4209;942.454;;;;
2022/05/08 10:22:42;;;;;;;9.1;8.2;;;;;;;16.72;75.95898;942.4595;;;;
2022/05/08 10:25:15;;;;;;;9.1;8.2;;;;;;;16.61;76.3916;942.4371;;;;
2022/05/08 10:27:44;;;;;;;9.4;8;;;;;;;16.41;77.80566;942.3208;;;;
2022/05/08 10:30:09;;;;;;;9.3;8.4;;;;;;;16.61;77.47852;942.3914;;;;
2022/05/08 10:32:37;;;;;;;9.4;8.4;;;;;;;16.71;77.11719;942.4208;;;;
2022/05/08 10:35:22;;;;;;;10.3;8.1;;;;;;;16.78;76.73438;942.4034;;;;
2022/05/08 10:37:47;;;;;;;8.2;7.4;;;;;;;17;75.43945;942.3497;;;;
2022/05/08 10:40:12;;;;;;;8.4;7.4;;;;;;;17.01;74.62988;942.426;;;;
2022/05/08 10:42:44;;;;;;;7.7;6.9;;;;;;;16.92;73.75879;942.4324;;;;
2022/05/08 10:45:06;;;;;;;7.9;7.1;;;;;;;17.03;74.00684;942.3972;;;;
2022/05/08 10:47:36;;;;;;;8.9;8;;;;;;;17.17;73.9502;942.3936;;;;
2022/05/08 10:50:05;;;;;;;9.8;7.5;;;;;;;17.04;73.20898;942.4116;;;;
2022/05/08 10:52:30;;;;;;;8.3;7.5;;;;;;;17.1;73.71777;942.4264;;;;
2022/05/08 10:54:55;;;;;;;8.1;6.7;;;;;;;17.02;73.79688;942.3192;;;;
2022/05/08 10:57:20;;;;;;;8.2;7.4;;;;;;;17.14;73.95703;942.3044;;;;
2022/05/08 10:59:45;;;;;;;14.5;8.1;;;;;;;17.02;74.14453;942.4367;;;;
2022/05/08 11:02:14;;;;;;;9;8;;;;;;;17.11;74.06836;942.3803;;;;
2022/05/08 11:04:39;;;;;;;8.5;7.5;;;;;;;17.17;74.54199;942.3775;;;;
2022/05/08 11:07:05;;;;;;;8.8;7.9;;;;;;;17.19;74.11719;942.3652;;;;
2022/05/08 11:09:32;;;;;;;9;8;;;;;;;16.99;74.71973;942.402;;;;
2022/05/08 11:11:57;;;;;;;9.2;8.2;;;;;;;16.96;75.24805;942.4112;;;;
2022/05/08 11:14:22;;;;;;;9.7;8.4;;;;;;;16.97;75.3291;942.3605;;;;
2022/05/08 11:16:51;;;;;;;10.3;9.2;;;;;;;16.85;76.16797;942.3526;;;;
2022/05/08 11:19:14;;;;;;;8.9;8;;;;;;;16.96;75.94141;942.3758;;;;
2022/05/08 11:21:42;;;;;;;9.1;8.2;;;;;;;17.11;75.7832;942.3426;;;;
2022/05/08 11:24:06;;;;;;;9.6;8.2;;;;;;;17.11;75.10059;942.3803;;;;
2022/05/08 11:26:32;;;;;;;8.6;7.7;;;;;;;16.99;75.2627;942.4005;;;;
2022/05/08 11:28:58;;;;;;;8.7;7.8;;;;;;;16.71;76.68652;942.3276;;;;
2022/05/08 11:31:23;;;;;;;9.2;8.3;;;;;;;16.89;76.75293;942.4601;;;;
2022/05/08 11:36:12;;;;;;;8.3;7.5;;;;;;;16.79;77.15332;942.4227;;;;
2022/05/08 11:38:44;;;;;;;8.3;7.4;;;;;;;16.73;77.8252;942.4256;;;;
2022/05/08 11:41:06;;;;;;;9.8;6.8;;;;;;;16.5;77.94727;942.347;;;;
2022/05/08 11:43:31;;;;;;;7.7;6.9;;;;;;;16.4;78.32324;942.4391;;;;
2022/05/08 11:46:00;;;;;;;8.1;7.3;;;;;;;16.5;78.5127;942.4283;;;;
2022/05/08 11:48:24;;;;;;;7.8;7.1;;;;;;;16.64;77.72754;942.3825;;;;
2022/05/08 11:50:51;;;;;;;8.4;7.5;;;;;;;16.58;78.1123;942.4092;;;;
2022/05/08 11:53:15;;;;;;;9.2;8.2;;;;;;;16.55;78.75586;942.3869;;;;
2022/05/08 11:55:40;;;;;;;8.3;7.4;;;;;;;16.56;79.41699;942.3675;;;;
2022/05/08 11:58:08;;;;;;;8.8;7.9;;;;;;;16.65;78.65723;942.3455;;;;
2022/05/08 12:00:34;;;;;;;8.7;7.4;;;;;;;16.74;77.3877;942.3354;;;;
2022/05/08 12:03:02;;;;;;;8.3;7.4;;;;;;;16.68;77.73438;942.3858;;;;
2022/05/08 12:05:28;;;;;;;8.4;7.6;;;;;;;16.73;77.33887;942.338;;;;
2022/05/08 12:07:55;;;;;;;8.3;7.4;;;;;;;16.83;76.82324;942.3889;;;;
2022/05/08 12:10:20;;;;;;;8.3;7.4;;;;;;;16.99;76.31836;942.3627;;;;
2022/05/08 12:12:46;;;;;;;8.5;7.4;;;;;;;17.23;75.9209;942.3384;;;;
2022/05/08 12:15:19;;;;;;;8.8;7.9;;;;;;;17.4;75.03223;942.3449;;;;
2022/05/08 12:17:47;;;;;;;8.1;7.3;;;;;;;17.68;74.26953;942.288;;;;
2022/05/08 12:20:16;;;;;;;8.8;7.9;;;;;;;18.04;73.69141;942.3123;;;;
2022/05/08 12:22:46;;;;;;;8.1;7.3;;;;;;;18.15;73.47559;942.2933;;;;
2022/05/08 12:25:10;;;;;;;8.6;7.7;;;;;;;18.38;72.58496;942.2589;;;;
2022/05/08 12:27:37;;;;;;;7.4;6.7;;;;;;;18.72;70.68555;942.2209;;;;
2022/05/08 12:30:02;;;;;;;8.9;8;;;;;;;18.55;72.52051;942.285;;;;
2022/05/08 12:32:31;;;;;;;8.1;7.3;;;;;;;18.66;71.91016;942.2363;;;;
2022/05/08 12:34:59;;;;;;;9.2;8.2;;;;;;;18.64;71.19629;942.2327;;;;
2022/05/08 12:37:24;;;;;;;9.2;8.2;;;;;;;18.57;72.05762;942.1984;;;;
2022/05/08 12:39:49;;;;;;;10.8;8.1;;;;;;;18.51;71.53613;942.1476;;;;
2022/05/08 12:42:23;;;;;;;10.7;8.7;;;;;;;18.14;75.7998;942.2079;;;;
2022/05/08 12:44:51;;;;;;;9.1;8.1;;;;;;;18.19;73.65625;942.1605;;;;
2022/05/08 12:47:18;;;;;;;8;7.2;;;;;;;18.32;71.94629;942.1663;;;;
2022/05/08 12:49:41;;;;;;;8.9;8;;;;;;;18.11;73.13281;942.1906;;;;
2022/05/08 12:52:45;;;;;;;9.4;8.4;;;;;;;17.77;74.41016;942.2096;;;;
2022/05/08 12:55:10;;;;;;;10.4;8.7;;;;;;;17.38;77.69727;942.1761;;;;
2022/05/08 13:00:36;;;;;;;9.6;8.5;;;;;;;17.28;76.10254;942.2237;;;;
2022/05/08 13:03:02;;;;;;;15.1;8.6;;;;;;;17.39;74.86816;942.2403;;;;
2022/05/08 13:05:32;;;;;;;9;8;;;;;;;17.56;75.6748;942.1768;;;;
2022/05/08 13:07:54;;;;;;;9.7;8.7;;;;;;;17.31;75.46875;942.2523;;;;
2022/05/08 13:10:22;;;;;;;10.6;9.1;;;;;;;17.18;76.71094;942.2131;;;;
2022/05/08 13:12:47;;;;;;;14;8.7;;;;;;;17.27;76.64551;942.2335;;;;
2022/05/08 13:15:16;;;;;;;8.7;7.8;;;;;;;17.27;74.94141;942.1812;;;;
2022/05/08 13:17:39;;;;;;;9.5;8.5;;;;;;;17.21;75.3125;942.2081;;;;
2022/05/08 13:20:04;;;;;;;8.8;7.9;;;;;;;17.18;75.91113;942.2131;;;;
2022/05/08 13:23:02;;;;;;;8.7;7.8;;;;;;;16.94;76.48438;942.2505;;;;
2022/05/08 13:25:30;;;;;;;9;8.1;;;;;;;17.14;76.16016;942.2151;;;;
2022/05/08 13:27:55;;;;;;;9.1;8.2;;;;;;;16.91;77.72949;942.1558;;;;
2022/05/08 13:30:21;;;;;;;8.9;8;;;;;;;16.88;76.9707;942.1987;;;;
2022/05/08 13:32:46;;;;;;;9.1;8.1;;;;;;;16.88;76.0918;942.1625;;;;
2022/05/08 13:35:16;;;;;;;9.8;8.8;;;;;;;16.73;76.50684;942.2133;;;;
2022/05/08 13:37:41;;;;;;;9.9;8.7;;;;;;;16.64;78.11035;942.2338;;;;
2022/05/08 13:40:10;;;;;;;9.3;8.3;;;;;;;16.31;77.10352;942.2218;;;;
2022/05/08 13:42:35;;;;;;;10.1;8.7;;;;;;;16.46;78.19531;942.2234;;;;
2022/05/08 13:45:02;;;;;;;8.3;7.5;;;;;;;16.59;77.46484;942.1599;;;;
2022/05/08 13:47:28;;;;;;;9;8.1;;;;;;;16.61;78.30176;942.2289;;;;
2022/05/08 13:49:55;;;;;;;8.6;7.7;;;;;;;16.65;77.81055;942.2336;;;;
2022/05/08 13:52:22;;;;;;;8.4;7.6;;;;;;;16.81;78.08301;942.2014;;;;
2022/05/08 13:54:49;;;;;;;8.6;7.7;;;;;;;16.87;78.48828;942.1714;;;;
2022/05/08 13:57:14;;;;;;;7.9;7.1;;;;;;;17.03;78.20215;942.1558;;;;
2022/05/08 13:59:43;;;;;;;8.1;7.3;;;;;;;17.02;78.51367;942.1439;;;;
2022/05/08 14:02:17;;;;;;;8.1;7.3;;;;;;;17.14;77.68848;942.1661;;;;
2022/05/08 14:04:42;;;;;;;8.3;7.4;;;;;;;17.18;77.07031;942.1037;;;;
2022/05/08 14:07:09;;;;;;;7.4;6.6;;;;;;;17.1;77.64941;942.1576;;;;
2022/05/08 14:09:34;;;;;;;8.1;6.7;;;;;;;17.18;77.04688;942.0964;;;;
2022/05/08 14:12:03;;;;;;;7.6;6.9;;;;;;;17.17;76.09668;942.1319;;;;
2022/05/08 14:14:34;;;;;;;7.8;7.1;;;;;;;17.13;76.66699;942.1654;;;;
2022/05/08 14:17:03;;;;;;;12.5;7.8;;;;;;;17.2;76.47266;942.1414;;;;
2022/05/08 14:19:28;;;;;;;7.9;7.2;;;;;;;17.22;77.06543;942.1508;;;;
2022/05/08 14:21:58;;;;;;;7.8;7;;;;;;;17.03;76.37109;942.0995;;;;
2022/05/08 14:24:21;;;;;;;8.4;7.3;;;;;;;16.88;77.27148;942.152;;;;
2022/05/08 14:26:49;;;;;;;8;7.1;;;;;;;16.95;77.78418;942.0725;;;;
2022/05/08 14:29:14;;;;;;;9.3;7.4;;;;;;;17.01;77.22559;942.0309;;;;
2022/05/08 14:36:31;;;;;;;8.3;7.1;;;;;;;16.78;78.18066;942.0239;;;;
2022/05/08 14:38:56;;;;;;;7.5;6.8;;;;;;;16.53;78.18457;942.051;;;;
2022/05/08 14:41:26;;;;;;;8.1;6.8;;;;;;;16.54;78.26758;942.03;;;;
2022/05/08 14:43:51;;;;;;;7.8;7;;;;;;;16.63;78.73242;942.02;;;;
2022/05/08 14:46:20;;;;;;;7.3;6.6;;;;;;;16.54;77.97852;942.0019;;;;
2022/05/08 14:48:45;;;;;;;7.2;6.5;;;;;;;16.32;79.11816;941.9822;;;;
2022/05/08 14:51:15;;;;;;;7;6.3;;;;;;;16.36;78.89355;942.0254;;;;
2022/05/08 14:53:40;;;;;;;7.9;7.1;;;;;;;16.49;78.70898;942.0376;;;;
2022/05/08 14:56:06;;;;;;;7.8;6.6;;;;;;;16.53;78.10352;942.022;;;;
2022/05/08 14:58:31;;;;;;;6.9;6.2;;;;;;;16.55;78.30273;942.0331;;;;
2022/05/08 15:00:56;;;;;;;7.4;6.7;;;;;;;16.57;77.90039;942.0041;;;;
2022/05/08 15:03:24;;;;;;;7;6.3;;;;;;;16.65;77.64844;942.007;;;;
2022/05/08 15:05:54;;;;;;;6.5;5.8;;;;;;;16.66;76.96875;942.0112;;;;
2022/05/08 15:08:20;;;;;;;6.4;5.8;;;;;;;16.66;76.48047;942.0109;;;;
2022/05/08 15:10:49;;;;;;;6.8;6.1;;;;;;;16.65;76.84961;941.9346;;;;
2022/05/08 15:13:13;;;;;;;6.9;6.2;;;;;;;16.7;76.61621;942.0583;;;;
2022/05/08 15:15:44;;;;;;;6.6;6;;;;;;;16.58;77.39258;942.0273;;;;
2022/05/08 15:20:35;;;;;;;5.7;5.2;;;;;;;16.37;78.24707;942.088;;;;
2022/05/08 15:23:04;;;;;;;6.7;6.1;;;;;;;16.39;78.62207;942.0637;;;;